Kanesville, Utah
Current Conditions -  °F | °C
As of 7:53 PM on Monday 26 Jan 2015 (Local Time) from KOGD Reporting Station
Clear Clear  
Wind Chill: 37°   Ceiling: Unl
Heat Index: 37°   Visibility: 7mi
Dew Point: 33°   Wind: 3mph
Humidity: 86%   Direction: 120°ESE
Pressure: 30.23"   Gusts: NA
Location:  41.1783°N, 112.12°W
Report Text: KOGD 270253Z 12003KT 7SM CLR 03/01 A3023 RMK AO2 SLP246 T00280006 52011
Loading
Personal Weather Stations






























Interactive Weather Map New forecast layout! Learn more

10-Day Weather Forecast

Advertisements
Track Severe Weather on mobile